createdAt,value
2018-03-28T00:00:04.894Z,10.82
2018-03-28T00:01:08.242Z,10.82
2018-03-28T00:02:11.602Z,10.83
2018-03-28T00:03:14.946Z,10.84
2018-03-28T00:04:18.316Z,10.84
2018-03-28T00:05:21.719Z,10.85
2018-03-28T00:06:25.048Z,10.86
2018-03-28T00:07:28.396Z,10.87
2018-03-28T00:08:31.701Z,10.89
2018-03-28T00:09:35.039Z,10.90
2018-03-28T00:10:38.388Z,10.90
2018-03-28T00:11:42.013Z,10.91
2018-03-28T00:12:45.361Z,10.92
2018-03-28T00:13:48.739Z,10.92
2018-03-28T00:14:52.052Z,10.93
2018-03-28T00:15:55.373Z,10.94
2018-03-28T00:16:58.739Z,10.94
2018-03-28T00:18:02.598Z,10.94
2018-03-28T00:19:05.924Z,10.95
2018-03-28T00:20:09.253Z,10.96
2018-03-28T00:21:12.623Z,10.96
2018-03-28T00:22:16.272Z,10.97
2018-03-28T00:23:19.589Z,10.96
2018-03-28T00:24:22.922Z,10.98
2018-03-28T00:25:26.251Z,10.97
2018-03-28T00:26:29.566Z,10.98
2018-03-28T00:27:32.925Z,10.98
2018-03-28T00:28:36.233Z,10.99
2018-03-28T00:29:39.581Z,10.99
2018-03-28T00:30:42.975Z,10.99
2018-03-28T00:31:46.297Z,10.99
2018-03-28T00:32:49.750Z,11.00
2018-03-28T00:33:53.069Z,11.01
2018-03-28T00:34:57.796Z,11.01
2018-03-28T00:36:01.180Z,11.02
2018-03-28T00:37:04.509Z,11.02
2018-03-28T00:38:07.880Z,11.03
2018-03-28T00:39:11.194Z,11.04
2018-03-28T00:40:14.609Z,11.04
2018-03-28T00:41:17.960Z,11.03
2018-03-28T00:42:21.295Z,11.04
2018-03-28T00:43:24.642Z,11.05
2018-03-28T00:44:29.771Z,11.06
2018-03-28T00:45:33.135Z,11.05
2018-03-28T00:46:36.517Z,11.06
2018-03-28T00:47:39.908Z,11.06
2018-03-28T00:48:43.234Z,11.07
2018-03-28T00:49:46.575Z,11.07
2018-03-28T00:50:49.885Z,11.07
2018-03-28T00:51:53.256Z,11.06
2018-03-28T00:52:56.573Z,11.06
2018-03-28T00:53:59.912Z,11.07
2018-03-28T00:55:03.277Z,11.07
2018-03-28T00:56:06.620Z,11.06
2018-03-28T00:57:09.969Z,11.08
2018-03-28T00:58:13.319Z,11.07
2018-03-28T00:59:16.717Z,11.07
2018-03-28T01:00:20.108Z,11.08
2018-03-28T01:01:23.434Z,11.07
2018-03-28T01:02:27.237Z,11.07
2018-03-28T01:03:30.551Z,11.08
2018-03-28T01:04:33.892Z,11.08
2018-03-28T01:05:37.256Z,11.08
2018-03-28T01:06:40.565Z,11.08
2018-03-28T01:07:43.948Z,11.09
2018-03-28T01:08:47.266Z,11.09
2018-03-28T01:09:50.659Z,11.09
2018-03-28T01:10:53.990Z,11.10
2018-03-28T01:11:57.353Z,11.09
2018-03-28T01:13:00.685Z,11.10
2018-03-28T01:14:04.005Z,11.10
2018-03-28T01:15:07.395Z,11.10
2018-03-28T01:16:10.726Z,11.11
2018-03-28T01:17:14.043Z,11.11
2018-03-28T01:18:17.364Z,11.12
2018-03-28T01:19:20.679Z,11.12
2018-03-28T01:20:24.017Z,11.12
2018-03-28T01:21:27.382Z,11.12
2018-03-28T01:22:30.768Z,11.13
2018-03-28T01:23:34.120Z,11.13
2018-03-28T01:24:37.445Z,11.12
2018-03-28T01:25:41.264Z,11.13
2018-03-28T01:26:44.597Z,11.13
2018-03-28T01:27:48.703Z,11.13
2018-03-28T01:28:52.019Z,11.13
2018-03-28T01:29:55.354Z,11.14
2018-03-28T01:30:59.833Z,11.14
2018-03-28T01:32:03.137Z,11.15
2018-03-28T01:33:06.492Z,11.14
2018-03-28T01:34:09.824Z,11.15
2018-03-28T01:35:14.484Z,11.15
2018-03-28T01:36:17.849Z,11.16
2018-03-28T01:37:21.179Z,11.15
2018-03-28T01:38:24.487Z,11.16
2018-03-28T01:39:27.842Z,11.16
2018-03-28T01:40:31.152Z,11.16
2018-03-28T01:41:34.557Z,11.15
2018-03-28T01:42:38.009Z,11.16
2018-03-28T01:43:41.367Z,11.16
2018-03-28T01:44:44.676Z,11.17
2018-03-28T01:45:48.011Z,11.17
2018-03-28T01:46:51.381Z,11.17
2018-03-28T01:47:54.672Z,11.17
2018-03-28T01:48:57.992Z,11.17
2018-03-28T01:50:01.369Z,11.17
2018-03-28T01:51:04.703Z,11.17
2018-03-28T01:52:08.047Z,11.18
2018-03-28T01:53:11.385Z,11.17
2018-03-28T01:54:14.715Z,11.18
2018-03-28T01:55:18.849Z,11.18
2018-03-28T01:56:22.232Z,11.18
2018-03-28T01:57:26.169Z,11.18
2018-03-28T01:58:29.492Z,11.18
2018-03-28T01:59:32.900Z,11.18
2018-03-28T02:00:36.227Z,11.18
2018-03-28T02:01:39.549Z,11.18
2018-03-28T02:02:42.905Z,11.18
2018-03-28T02:03:46.235Z,11.19
2018-03-28T02:04:49.607Z,11.18
2018-03-28T02:05:52.906Z,11.19
2018-03-28T02:06:56.293Z,11.18
2018-03-28T02:07:59.582Z,11.18
2018-03-28T02:09:02.898Z,11.19
2018-03-28T02:10:06.219Z,11.19
2018-03-28T02:11:09.531Z,11.19
2018-03-28T02:12:12.860Z,11.19
2018-03-28T02:13:16.256Z,11.18
2018-03-28T02:14:19.560Z,11.19
2018-03-28T02:15:22.891Z,11.19
2018-03-28T02:16:26.227Z,11.19
2018-03-28T02:17:29.627Z,11.19
2018-03-28T02:18:32.954Z,11.19
2018-03-28T02:19:36.342Z,11.20
2018-03-28T02:20:39.738Z,11.20
2018-03-28T02:21:43.064Z,11.20
2018-03-28T02:22:46.382Z,11.20
2018-03-28T02:23:49.736Z,11.21
2018-03-28T02:24:53.086Z,11.21
2018-03-28T02:25:56.415Z,11.21
2018-03-28T02:26:59.764Z,11.20
2018-03-28T02:28:03.084Z,11.21
2018-03-28T02:29:06.423Z,11.20
2018-03-28T02:30:09.761Z,11.21
2018-03-28T02:31:13.109Z,11.21
2018-03-28T02:32:16.457Z,11.22
2018-03-28T02:33:19.818Z,11.22
2018-03-28T02:34:23.159Z,11.23
2018-03-28T02:35:27.395Z,11.23
2018-03-28T02:36:30.732Z,11.22
2018-03-28T02:37:34.051Z,11.23
2018-03-28T02:38:37.397Z,11.22
2018-03-28T02:39:40.865Z,11.22
2018-03-28T02:40:44.182Z,11.22
2018-03-28T02:41:47.502Z,11.21
2018-03-28T02:42:50.807Z,11.21
2018-03-28T02:43:54.127Z,11.21
2018-03-28T02:44:57.477Z,11.21
2018-03-28T02:46:00.813Z,11.22
2018-03-28T02:47:04.190Z,11.21
2018-03-28T02:48:07.548Z,11.22
2018-03-28T02:49:10.897Z,11.21
2018-03-28T02:50:14.331Z,11.20
2018-03-28T02:51:17.638Z,11.21
2018-03-28T02:52:20.950Z,11.21
2018-03-28T02:53:24.271Z,11.21
2018-03-28T02:54:27.600Z,11.21
2018-03-28T02:55:30.938Z,11.21
2018-03-28T02:56:34.883Z,11.21
2018-03-28T02:57:38.247Z,11.21
2018-03-28T02:58:41.568Z,11.21
2018-03-28T02:59:44.877Z,11.21
2018-03-28T03:00:48.240Z,11.21
2018-03-28T03:01:51.568Z,11.21
2018-03-28T03:02:54.913Z,11.21
2018-03-28T03:03:58.238Z,11.21
2018-03-28T03:05:01.638Z,11.21
2018-03-28T03:06:04.985Z,11.20
2018-03-28T03:07:08.297Z,11.21
2018-03-28T03:08:11.662Z,11.21
2018-03-28T03:09:14.982Z,11.20
2018-03-28T03:10:18.301Z,11.20
2018-03-28T03:11:21.664Z,11.20
2018-03-28T03:12:25.177Z,11.20
2018-03-28T03:13:28.515Z,11.19
2018-03-28T03:14:31.920Z,11.19
2018-03-28T03:15:35.232Z,11.19
2018-03-28T03:16:38.689Z,11.19
2018-03-28T03:17:42.717Z,11.19
2018-03-28T03:18:46.023Z,11.19
2018-03-28T03:19:49.391Z,11.19
2018-03-28T03:20:52.781Z,11.19
2018-03-28T03:21:56.137Z,11.20
2018-03-28T03:22:59.465Z,11.20
2018-03-28T03:24:02.800Z,11.20
2018-03-28T03:25:06.116Z,11.20
2018-03-28T03:26:09.428Z,11.20
2018-03-28T03:27:13.438Z,11.19
2018-03-28T03:28:16.760Z,11.19
2018-03-28T03:29:20.083Z,11.19
2018-03-28T03:30:23.401Z,11.19
2018-03-28T03:31:26.713Z,11.19
2018-03-28T03:32:30.073Z,11.19
2018-03-28T03:33:34.940Z,11.20
2018-03-28T03:34:38.297Z,11.19
2018-03-28T03:35:42.426Z,11.19
2018-03-28T03:36:46.399Z,11.18
2018-03-28T03:37:49.759Z,11.18
2018-03-28T03:38:53.519Z,11.17
2018-03-28T03:39:56.895Z,11.17
2018-03-28T03:41:00.213Z,11.18
2018-03-28T03:42:03.628Z,11.18
2018-03-28T03:43:06.968Z,11.18
2018-03-28T03:44:10.297Z,11.17
2018-03-28T03:45:13.860Z,11.17
2018-03-28T03:46:17.191Z,11.17
2018-03-28T03:47:20.504Z,11.17
2018-03-28T03:48:23.859Z,11.16
2018-03-28T03:49:27.206Z,11.16
2018-03-28T03:50:30.612Z,11.17
2018-03-28T03:51:33.923Z,11.16
2018-03-28T03:52:37.253Z,11.16
2018-03-28T03:53:40.664Z,11.17
2018-03-28T03:54:44.004Z,11.17
2018-03-28T03:55:47.322Z,11.17
2018-03-28T03:56:50.639Z,11.17
2018-03-28T03:57:53.978Z,11.17
2018-03-28T03:58:57.350Z,11.18
2018-03-28T04:00:00.730Z,11.18
2018-03-28T04:01:04.060Z,11.19
2018-03-28T04:02:07.395Z,11.19
2018-03-28T04:03:10.743Z,11.20
2018-03-28T04:04:14.124Z,11.19
2018-03-28T04:05:17.426Z,11.19
2018-03-28T04:06:20.789Z,11.18
2018-03-28T04:07:24.112Z,11.18
2018-03-28T04:08:27.454Z,11.17
2018-03-28T04:09:30.831Z,11.16
2018-03-28T04:10:34.320Z,11.16
2018-03-28T04:11:37.624Z,11.17
2018-03-28T04:12:40.948Z,11.16
2018-03-28T04:13:44.362Z,11.17
2018-03-28T04:14:47.745Z,11.16
2018-03-28T04:15:51.103Z,11.16
2018-03-28T04:16:54.427Z,11.16
2018-03-28T04:17:57.762Z,11.17
2018-03-28T04:19:01.084Z,11.16
2018-03-28T04:20:04.439Z,11.16
2018-03-28T04:21:07.755Z,11.16
2018-03-28T04:22:11.067Z,11.17
2018-03-28T04:23:14.415Z,11.17
2018-03-28T04:24:17.741Z,11.16
2018-03-28T04:25:21.108Z,11.16
2018-03-28T04:26:24.424Z,11.16
2018-03-28T04:27:27.770Z,11.16
2018-03-28T04:28:31.064Z,11.15
2018-03-28T04:29:34.388Z,11.15
2018-03-28T04:30:37.735Z,11.16
2018-03-28T04:31:41.097Z,11.15
2018-03-28T04:32:44.403Z,11.16
2018-03-28T04:33:47.746Z,11.16
2018-03-28T04:34:51.069Z,11.16
2018-03-28T04:35:55.496Z,11.16
2018-03-28T04:36:58.835Z,11.16
2018-03-28T04:38:02.147Z,11.16
2018-03-28T04:39:05.501Z,11.16
2018-03-28T04:40:09.291Z,11.16
2018-03-28T04:41:12.634Z,11.16
2018-03-28T04:42:16.031Z,11.17
2018-03-28T04:43:19.379Z,11.17
2018-03-28T04:44:22.696Z,11.17
2018-03-28T04:45:26.066Z,11.17
2018-03-28T04:46:29.510Z,11.17
2018-03-28T04:47:32.848Z,11.16
2018-03-28T04:48:36.217Z,11.17
2018-03-28T04:49:39.528Z,11.17
2018-03-28T04:50:42.854Z,11.16
2018-03-28T04:51:46.353Z,11.16
2018-03-28T04:52:49.672Z,11.15
2018-03-28T04:53:52.997Z,11.16
2018-03-28T04:54:56.386Z,11.16
2018-03-28T04:55:59.824Z,11.16
2018-03-28T04:57:03.226Z,11.16
2018-03-28T04:58:06.579Z,11.16
2018-03-28T04:59:09.940Z,11.16
2018-03-28T05:00:13.250Z,11.16
2018-03-28T05:01:16.597Z,11.16
2018-03-28T05:02:20.001Z,11.16
2018-03-28T05:03:23.352Z,11.16
2018-03-28T05:04:26.721Z,11.14
2018-03-28T05:05:30.062Z,11.15
2018-03-28T05:06:33.365Z,11.15
2018-03-28T05:07:36.717Z,11.14
2018-03-28T05:08:40.071Z,11.14
2018-03-28T05:09:43.394Z,11.14
2018-03-28T05:10:46.721Z,11.14
2018-03-28T05:11:50.087Z,11.14
2018-03-28T05:12:53.493Z,11.14
2018-03-28T05:13:56.832Z,11.13
2018-03-28T05:15:00.211Z,11.13
2018-03-28T05:16:03.599Z,11.13
2018-03-28T05:17:06.997Z,11.14
2018-03-28T05:18:10.637Z,11.14
2018-03-28T05:19:13.970Z,11.15
2018-03-28T05:20:17.352Z,11.14
2018-03-28T05:21:20.689Z,11.14
2018-03-28T05:22:24.063Z,11.14
2018-03-28T05:23:27.450Z,11.14
2018-03-28T05:24:30.788Z,11.14
2018-03-28T05:25:34.181Z,11.15
2018-03-28T05:26:37.482Z,11.15
2018-03-28T05:27:40.827Z,11.15
2018-03-28T05:28:44.211Z,11.14
2018-03-28T05:29:47.546Z,11.15
2018-03-28T05:30:50.893Z,11.15
2018-03-28T05:31:54.220Z,11.15
2018-03-28T05:32:57.576Z,11.15
2018-03-28T05:34:00.932Z,11.15
2018-03-28T05:35:04.277Z,11.15
2018-03-28T05:36:08.591Z,11.15
2018-03-28T05:37:11.887Z,11.16
2018-03-28T05:38:15.230Z,11.16
2018-03-28T05:39:18.638Z,11.16
2018-03-28T05:40:21.937Z,11.16
2018-03-28T05:41:25.308Z,11.17
2018-03-28T05:42:28.692Z,11.17
2018-03-28T05:43:32.012Z,11.17
2018-03-28T05:44:35.380Z,11.17
2018-03-28T05:45:39.002Z,11.18
2018-03-28T05:46:42.442Z,11.18
2018-03-28T05:47:45.765Z,11.18
2018-03-28T05:48:49.081Z,11.18
2018-03-28T05:49:52.452Z,11.18
2018-03-28T05:50:55.819Z,11.18
2018-03-28T05:51:59.172Z,11.19
2018-03-28T05:53:02.630Z,11.19
2018-03-28T05:54:06.000Z,11.18
2018-03-28T05:55:09.379Z,11.19
2018-03-28T05:56:12.704Z,11.19
2018-03-28T05:57:16.036Z,11.19
2018-03-28T05:58:19.347Z,11.19
2018-03-28T05:59:22.673Z,11.19
2018-03-28T06:00:26.062Z,11.19
2018-03-28T06:01:29.386Z,11.20
2018-03-28T06:02:32.791Z,11.20
2018-03-28T06:03:36.827Z,11.20
2018-03-28T06:04:40.245Z,11.20
2018-03-28T06:05:43.625Z,11.19
2018-03-28T06:06:46.966Z,11.21
2018-03-28T06:07:50.314Z,11.22
2018-03-28T06:08:53.635Z,11.21
2018-03-28T06:09:56.957Z,11.22
2018-03-28T06:11:00.290Z,11.22
2018-03-28T06:12:04.059Z,11.23
2018-03-28T06:13:07.408Z,11.24
2018-03-28T06:14:10.802Z,11.23
2018-03-28T06:15:14.113Z,11.24
2018-03-28T06:16:17.500Z,11.24
2018-03-28T06:17:20.940Z,11.23
2018-03-28T06:18:24.408Z,11.25
2018-03-28T06:19:27.776Z,11.25
2018-03-28T06:20:31.137Z,11.26
2018-03-28T06:21:34.507Z,11.27
2018-03-28T06:22:37.835Z,11.27
2018-03-28T06:23:41.149Z,11.28
2018-03-28T06:24:44.635Z,11.28
2018-03-28T06:25:47.906Z,11.28
2018-03-28T06:26:51.228Z,11.29
2018-03-28T06:27:54.553Z,11.29
2018-03-28T06:28:57.921Z,11.30
2018-03-28T06:30:01.510Z,11.30
2018-03-28T06:31:04.838Z,11.30
2018-03-28T06:32:08.216Z,11.30
2018-03-28T06:33:11.641Z,11.31
2018-03-28T06:34:15.054Z,11.32
2018-03-28T06:35:18.389Z,11.32
2018-03-28T06:36:23.459Z,11.32
2018-03-28T06:37:28.333Z,11.31
2018-03-28T06:38:31.756Z,11.32
2018-03-28T06:39:35.099Z,11.32
2018-03-28T06:40:38.432Z,11.32
2018-03-28T06:41:42.713Z,11.33
2018-03-28T06:42:46.046Z,11.33
2018-03-28T06:43:49.399Z,11.34
2018-03-28T06:44:52.857Z,11.34
2018-03-28T06:45:56.182Z,11.35
2018-03-28T06:46:59.553Z,11.35
2018-03-28T06:48:03.653Z,11.36
2018-03-28T06:49:07.375Z,11.37
2018-03-28T06:50:10.749Z,11.37
2018-03-28T06:51:14.087Z,11.37
2018-03-28T06:52:17.463Z,11.37
2018-03-28T06:53:20.792Z,11.38
2018-03-28T06:54:24.106Z,11.39
2018-03-28T06:55:27.453Z,11.41
2018-03-28T06:56:30.792Z,11.43
2018-03-28T06:57:34.477Z,11.47
2018-03-28T06:58:37.842Z,11.49
2018-03-28T06:59:41.197Z,11.51
2018-03-28T07:00:44.506Z,11.53
2018-03-28T07:01:47.833Z,11.54
2018-03-28T07:02:51.166Z,11.55
2018-03-28T07:03:54.533Z,11.56
2018-03-28T07:04:57.860Z,11.57
2018-03-28T07:06:01.275Z,11.57
2018-03-28T07:07:04.581Z,11.58
2018-03-28T07:08:07.933Z,11.60
2018-03-28T07:09:11.276Z,11.61
2018-03-28T07:10:14.796Z,11.64
2018-03-28T07:11:18.876Z,11.66
2018-03-28T07:12:22.231Z,11.68
2018-03-28T07:13:25.591Z,11.70
2018-03-28T07:14:29.027Z,11.72
2018-03-28T07:15:32.332Z,11.74
2018-03-28T07:16:35.696Z,11.77
2018-03-28T07:17:39.023Z,11.80
2018-03-28T07:18:42.376Z,11.82
2018-03-28T07:19:45.742Z,11.85
2018-03-28T07:20:49.673Z,11.85
2018-03-28T07:21:53.006Z,11.86
2018-03-28T07:22:56.331Z,11.87
2018-03-28T07:23:59.653Z,11.88
2018-03-28T07:25:03.089Z,11.89
2018-03-28T07:26:06.573Z,11.91
2018-03-28T07:27:09.882Z,11.93
2018-03-28T07:28:13.208Z,11.95
2018-03-28T07:29:16.521Z,11.96
2018-03-28T07:30:19.900Z,11.98
2018-03-28T07:31:23.241Z,11.99
2018-03-28T07:32:26.769Z,12.00
2018-03-28T07:33:30.964Z,12.02
2018-03-28T07:34:34.317Z,12.06
2018-03-28T07:35:37.661Z,12.09
2018-03-28T07:36:42.231Z,12.13
2018-03-28T07:37:45.583Z,12.17
2018-03-28T07:38:48.941Z,12.20
2018-03-28T07:39:52.240Z,12.24
2018-03-28T07:40:55.638Z,12.28
2018-03-28T07:41:58.983Z,12.32
2018-03-28T07:43:02.308Z,12.36
2018-03-28T07:44:05.692Z,12.39
2018-03-28T07:45:09.174Z,12.45
2018-03-28T07:46:13.301Z,12.48
2018-03-28T07:47:16.629Z,12.52
2018-03-28T07:48:19.961Z,12.57
2018-03-28T07:49:23.383Z,12.59
2018-03-28T07:50:26.686Z,12.62
2018-03-28T07:51:30.084Z,12.63
2018-03-28T07:52:34.077Z,12.65
2018-03-28T07:53:37.395Z,12.67
2018-03-28T07:54:41.674Z,12.69
2018-03-28T07:55:45.005Z,12.73
2018-03-28T07:56:48.351Z,12.75
2018-03-28T07:57:51.698Z,12.79
2018-03-28T07:58:55.183Z,12.83
2018-03-28T07:59:58.655Z,12.86
2018-03-28T08:01:02.022Z,12.87
2018-03-28T08:02:05.399Z,12.89
2018-03-28T08:03:08.813Z,12.88
2018-03-28T08:04:12.144Z,12.88
2018-03-28T08:05:15.564Z,12.87
2018-03-28T08:06:18.984Z,12.86
2018-03-28T08:07:22.326Z,12.85
2018-03-28T08:08:26.588Z,12.85
2018-03-28T08:09:29.969Z,12.85
2018-03-28T08:10:33.241Z,12.86
2018-03-28T08:11:36.616Z,12.85
2018-03-28T08:12:39.991Z,12.85
2018-03-28T08:13:43.329Z,12.82
2018-03-28T08:14:46.642Z,12.82
2018-03-28T08:15:50.151Z,12.81
2018-03-28T08:16:53.469Z,12.81
2018-03-28T08:17:57.027Z,12.82
2018-03-28T08:19:00.384Z,12.81
2018-03-28T08:20:03.741Z,12.82
2018-03-28T08:21:07.145Z,12.82
2018-03-28T08:22:10.463Z,12.84
2018-03-28T08:23:14.124Z,12.85
2018-03-28T08:24:17.747Z,12.83
2018-03-28T08:25:21.081Z,12.84
2018-03-28T08:26:24.424Z,12.85
2018-03-28T08:27:27.766Z,12.85
2018-03-28T08:28:31.148Z,12.86
2018-03-28T08:29:34.480Z,12.87
2018-03-28T08:30:37.801Z,12.87
2018-03-28T08:31:41.271Z,12.88
2018-03-28T08:32:44.598Z,12.89
2018-03-28T08:33:47.954Z,12.88
2018-03-28T08:34:51.265Z,12.89
2018-03-28T08:35:54.586Z,12.90
2018-03-28T08:36:58.878Z,12.91
2018-03-28T08:38:02.222Z,12.92
2018-03-28T08:39:07.508Z,12.92
2018-03-28T08:40:10.828Z,12.92
2018-03-28T08:41:14.139Z,12.92
2018-03-28T08:42:17.542Z,12.91
2018-03-28T08:43:20.884Z,12.91
2018-03-28T08:44:24.555Z,12.92
2018-03-28T08:45:27.848Z,12.91
2018-03-28T08:46:31.165Z,12.90
2018-03-28T08:47:34.530Z,12.89
2018-03-28T08:48:37.918Z,12.89
2018-03-28T08:49:41.341Z,12.88
2018-03-28T08:50:44.700Z,12.88
2018-03-28T08:51:48.068Z,12.86
2018-03-28T08:52:51.389Z,12.85
2018-03-28T08:53:54.704Z,12.84
2018-03-28T08:54:58.091Z,12.84
2018-03-28T08:56:01.395Z,12.83
2018-03-28T08:57:04.797Z,12.82
2018-03-28T08:58:08.112Z,12.80
2018-03-28T08:59:11.436Z,12.79
2018-03-28T09:00:14.825Z,12.77
2018-03-28T09:01:18.227Z,12.76
2018-03-28T09:02:21.569Z,12.76
2018-03-28T09:03:24.905Z,12.74
2018-03-28T09:04:28.389Z,12.74
2018-03-28T09:05:31.749Z,12.73
2018-03-28T09:06:35.105Z,12.73
2018-03-28T09:07:38.410Z,12.73
2018-03-28T09:08:41.760Z,12.73
2018-03-28T09:09:45.113Z,12.72
2018-03-28T09:10:48.479Z,12.72
2018-03-28T09:11:51.842Z,12.72
2018-03-28T09:12:55.198Z,12.70
2018-03-28T09:13:58.528Z,12.70
2018-03-28T09:15:01.874Z,12.70
2018-03-28T09:16:05.257Z,12.69
2018-03-28T09:17:08.560Z,12.68
2018-03-28T09:18:11.888Z,12.67
2018-03-28T09:19:15.234Z,12.66
2018-03-28T09:20:18.577Z,12.65
2018-03-28T09:21:21.961Z,12.63
2018-03-28T09:22:25.343Z,12.63
2018-03-28T09:23:28.667Z,12.62
2018-03-28T09:24:31.988Z,12.62
2018-03-28T09:25:35.380Z,12.63
2018-03-28T09:26:38.708Z,12.63
2018-03-28T09:27:42.028Z,12.65
2018-03-28T09:28:45.364Z,12.67
2018-03-28T09:29:48.692Z,12.68
2018-03-28T09:30:52.006Z,12.71
2018-03-28T09:31:55.340Z,12.74
2018-03-28T09:33:00.295Z,12.77
2018-03-28T09:34:03.635Z,12.79
2018-03-28T09:35:06.963Z,12.80
2018-03-28T09:36:10.281Z,12.82
2018-03-28T09:37:15.682Z,12.83
2018-03-28T09:38:19.000Z,12.82
2018-03-28T09:39:22.320Z,12.83
2018-03-28T09:40:25.699Z,12.84
2018-03-28T09:41:29.010Z,12.85
2018-03-28T09:42:32.360Z,12.86
2018-03-28T09:43:35.697Z,12.87
2018-03-28T09:44:39.031Z,12.88
2018-03-28T09:45:42.399Z,12.88
2018-03-28T09:46:45.784Z,12.90
2018-03-28T09:47:49.142Z,12.94
2018-03-28T09:48:52.617Z,12.98
2018-03-28T09:49:55.960Z,13.00
2018-03-28T09:50:59.318Z,13.03
2018-03-28T09:52:07.322Z,13.05
2018-03-28T09:53:13.824Z,13.08
2018-03-28T09:54:17.376Z,13.11
2018-03-28T09:55:22.724Z,13.13
2018-03-28T09:56:26.066Z,13.16
2018-03-28T09:57:29.359Z,13.19
2018-03-28T09:58:32.696Z,13.21
2018-03-28T09:59:36.016Z,13.23
2018-03-28T10:00:39.364Z,13.25
2018-03-28T10:01:48.203Z,13.28
2018-03-28T10:02:51.526Z,13.29
2018-03-28T10:04:00.515Z,13.32
2018-03-28T10:05:03.882Z,13.33
2018-03-28T10:06:07.188Z,13.35
2018-03-28T10:07:10.528Z,13.37
2018-03-28T10:08:13.859Z,13.38
2018-03-28T10:09:17.298Z,13.39
2018-03-28T10:10:20.816Z,13.37
2018-03-28T10:11:24.132Z,13.37
2018-03-28T10:12:27.452Z,13.35
2018-03-28T10:13:30.872Z,13.33
2018-03-28T10:14:34.200Z,13.31
2018-03-28T10:15:37.641Z,13.30
2018-03-28T10:16:40.951Z,13.27
2018-03-28T10:17:44.310Z,13.27
2018-03-28T10:18:47.632Z,13.27
2018-03-28T10:19:50.991Z,13.26
2018-03-28T10:20:54.399Z,13.28
2018-03-28T10:21:57.755Z,13.29
2018-03-28T10:23:01.052Z,13.29
2018-03-28T10:24:04.743Z,13.30
2018-03-28T10:25:08.557Z,13.31
2018-03-28T10:26:11.986Z,13.30
2018-03-28T10:27:15.313Z,13.31
2018-03-28T10:28:18.654Z,13.33
2018-03-28T10:29:22.042Z,13.31
2018-03-28T10:30:29.574Z,13.31
2018-03-28T10:31:33.659Z,13.29
2018-03-28T10:32:37.855Z,13.28
2018-03-28T10:33:41.198Z,13.27
2018-03-28T10:34:44.741Z,13.26
2018-03-28T10:35:48.152Z,13.25
2018-03-28T10:36:51.481Z,13.24
2018-03-28T10:37:54.832Z,13.23
2018-03-28T10:38:58.151Z,13.23
2018-03-28T10:40:01.464Z,13.22
2018-03-28T10:41:04.810Z,13.22
2018-03-28T10:42:08.164Z,13.23
2018-03-28T10:43:11.498Z,13.23
2018-03-28T10:44:14.831Z,13.24
2018-03-28T10:45:18.154Z,13.24
2018-03-28T10:46:21.564Z,13.25
2018-03-28T10:47:24.864Z,13.24
2018-03-28T10:48:28.279Z,13.24
2018-03-28T10:49:31.654Z,13.24
2018-03-28T10:50:35.056Z,13.25
2018-03-28T10:51:38.455Z,13.23
2018-03-28T10:52:41.764Z,13.22
2018-03-28T10:53:45.182Z,13.20
2018-03-28T10:54:48.527Z,13.19
2018-03-28T10:55:52.029Z,13.19
2018-03-28T10:56:55.400Z,13.18
2018-03-28T10:57:58.725Z,13.19
2018-03-28T10:59:02.104Z,13.19
2018-03-28T11:00:05.412Z,13.20
2018-03-28T11:01:08.728Z,13.21
2018-03-28T11:02:12.075Z,13.20
2018-03-28T11:03:15.438Z,13.21
2018-03-28T11:04:18.752Z,13.21
2018-03-28T11:05:22.089Z,13.22
2018-03-28T11:06:25.442Z,13.23
2018-03-28T11:07:28.804Z,13.23
2018-03-28T11:08:32.121Z,13.24
2018-03-28T11:09:35.509Z,13.25
2018-03-28T11:10:38.814Z,13.26
2018-03-28T11:11:42.127Z,13.25
2018-03-28T11:12:45.585Z,13.26
2018-03-28T11:13:48.921Z,13.27
2018-03-28T11:14:52.258Z,13.27
2018-03-28T11:15:55.632Z,13.26
2018-03-28T11:16:58.920Z,13.26
2018-03-28T11:18:02.362Z,13.25
2018-03-28T11:19:05.654Z,13.26
2018-03-28T11:20:08.975Z,13.26
2018-03-28T11:21:12.335Z,13.26
2018-03-28T11:22:15.641Z,13.26
2018-03-28T11:23:19.213Z,13.27
2018-03-28T11:24:22.653Z,13.27
2018-03-28T11:25:25.944Z,13.27
2018-03-28T11:26:29.340Z,13.27
2018-03-28T11:27:32.655Z,13.27
2018-03-28T11:28:35.985Z,13.28
2018-03-28T11:29:39.303Z,13.29
2018-03-28T11:30:42.678Z,13.30
2018-03-28T11:31:45.967Z,13.31
2018-03-28T11:32:49.321Z,13.32
2018-03-28T11:33:52.692Z,13.34
2018-03-28T11:34:56.049Z,13.36
2018-03-28T11:35:59.361Z,13.37
2018-03-28T11:37:02.769Z,13.39
2018-03-28T11:38:08.015Z,13.41
2018-03-28T11:39:11.446Z,13.42
2018-03-28T11:40:14.730Z,13.45
2018-03-28T11:41:18.045Z,13.47
2018-03-28T11:42:21.376Z,13.48
2018-03-28T11:43:24.700Z,13.49
2018-03-28T11:44:28.088Z,13.49
2018-03-28T11:45:31.421Z,13.50
2018-03-28T11:46:34.755Z,13.50
2018-03-28T11:47:38.103Z,13.48
2018-03-28T11:48:41.470Z,13.49
2018-03-28T11:49:45.469Z,13.48
2018-03-28T11:50:48.839Z,13.47
2018-03-28T11:51:52.903Z,13.47
2018-03-28T11:52:56.239Z,13.45
2018-03-28T11:53:59.625Z,13.46
2018-03-28T11:55:02.972Z,13.47
2018-03-28T11:56:06.288Z,13.47
2018-03-28T11:57:09.993Z,13.47
2018-03-28T11:58:13.368Z,13.46
2018-03-28T11:59:16.738Z,13.46
2018-03-28T12:00:21.865Z,13.45
2018-03-28T12:01:25.190Z,13.43
2018-03-28T12:02:28.505Z,13.43
2018-03-28T12:03:31.847Z,13.43
2018-03-28T12:04:35.238Z,13.43
2018-03-28T12:05:38.581Z,13.41
2018-03-28T12:06:42.087Z,13.40
2018-03-28T12:07:45.412Z,13.39
2018-03-28T12:08:48.743Z,13.39
2018-03-28T12:09:52.100Z,13.39
2018-03-28T12:10:55.465Z,13.38
2018-03-28T12:11:59.659Z,13.38
2018-03-28T12:13:03.018Z,13.38
2018-03-28T12:14:06.354Z,13.39
2018-03-28T12:15:09.747Z,13.39
2018-03-28T12:16:13.188Z,13.37
2018-03-28T12:17:16.524Z,13.35
2018-03-28T12:18:19.878Z,13.30
2018-03-28T12:19:23.212Z,13.28
2018-03-28T12:20:26.591Z,13.25
2018-03-28T12:21:29.892Z,13.24
2018-03-28T12:22:33.251Z,13.24
2018-03-28T12:23:36.623Z,13.24
2018-03-28T12:24:39.944Z,13.24
2018-03-28T12:25:43.291Z,13.25
2018-03-28T12:26:46.723Z,13.26
2018-03-28T12:27:50.023Z,13.26
2018-03-28T12:28:53.345Z,13.26
2018-03-28T12:29:56.715Z,13.27
2018-03-28T12:31:01.016Z,13.28
2018-03-28T12:32:04.379Z,13.27
2018-03-28T12:33:07.766Z,13.26
2018-03-28T12:34:11.770Z,13.25
2018-03-28T12:35:15.159Z,13.23
2018-03-28T12:36:19.209Z,13.19
2018-03-28T12:37:22.590Z,13.15
2018-03-28T12:38:25.944Z,13.11
2018-03-28T12:39:29.255Z,13.09
2018-03-28T12:40:32.561Z,13.08
2018-03-28T12:41:35.882Z,13.06
2018-03-28T12:42:39.251Z,13.04
2018-03-28T12:43:42.576Z,13.04
2018-03-28T12:44:45.950Z,13.03
2018-03-28T12:45:49.276Z,13.02
2018-03-28T12:46:53.035Z,13.01
2018-03-28T12:47:56.625Z,12.99
2018-03-28T12:49:00.006Z,12.96
2018-03-28T12:50:03.560Z,12.93
2018-03-28T12:51:06.915Z,12.90
2018-03-28T12:52:10.339Z,12.88
2018-03-28T12:53:13.666Z,12.87
2018-03-28T12:54:16.981Z,12.85
2018-03-28T12:55:20.501Z,12.83
2018-03-28T12:56:23.657Z,12.82
2018-03-28T12:57:27.061Z,12.80
2018-03-28T12:58:30.431Z,12.79
2018-03-28T12:59:33.936Z,12.77
2018-03-28T13:00:37.272Z,12.74
2018-03-28T13:01:40.647Z,12.71
2018-03-28T13:02:43.964Z,12.69
2018-03-28T13:03:47.332Z,12.68
2018-03-28T13:04:50.651Z,12.67
2018-03-28T13:05:53.977Z,12.67
2018-03-28T13:06:57.315Z,12.66
2018-03-28T13:08:00.737Z,12.65
2018-03-28T13:09:04.049Z,12.65
2018-03-28T13:10:07.496Z,12.65
2018-03-28T13:11:10.766Z,12.63
2018-03-28T13:12:14.075Z,12.58
2018-03-28T13:13:17.395Z,12.50
2018-03-28T13:14:20.789Z,12.44
2018-03-28T13:15:24.180Z,12.39
2018-03-28T13:16:27.515Z,12.34
2018-03-28T13:17:30.840Z,12.30
2018-03-28T13:18:34.184Z,12.27
2018-03-28T13:19:37.549Z,12.23
2018-03-28T13:20:40.936Z,12.20
2018-03-28T13:21:44.258Z,12.16
2018-03-28T13:22:47.636Z,12.13
2018-03-28T13:23:50.987Z,12.09
2018-03-28T13:24:54.371Z,12.06
2018-03-28T13:25:57.743Z,12.02
2018-03-28T13:27:01.062Z,12.00
2018-03-28T13:28:04.450Z,12.00
2018-03-28T13:29:08.632Z,12.00
2018-03-28T13:30:12.062Z,11.98
2018-03-28T13:31:15.404Z,11.94
2018-03-28T13:32:18.725Z,11.90
2018-03-28T13:33:22.065Z,11.86
2018-03-28T13:34:25.397Z,11.84
2018-03-28T13:35:28.883Z,11.84
2018-03-28T13:36:32.256Z,11.83